Time;durP1;ratioP1;P1;durP2;ratioP2;P2;SDS_P1;SDS_P2;PMS_P1;PMS_P2;Temp;Humidity;BMP_temperature;BMP_pressure;BME280_temperature;BME280_humidity;BME280_pressure;Samples;Min_cycle;Max_cycle;Signal;HPM_P1;HPM_P2
2022/09/22 00:02:24;;;;;;;;;;;12.60;99.90;;;;;;4953993;29;20005;-90
2022/09/22 00:04:50;;;;;;;;;;;12.50;99.90;;;;;;4953603;29;19969;-87
2022/09/22 00:07:16;;;;;;;;;;;12.50;99.90;;;;;;4953324;29;19961;-87
2022/09/22 00:09:41;;;;;;;;;;;12.50;99.90;;;;;;4953361;29;20349;-87
2022/09/22 00:12:07;;;;;;;;;;;12.50;99.90;;;;;;4953472;29;19976;-89
2022/09/22 00:14:33;;;;;;;;;;;12.50;99.90;;;;;;4954039;28;19956;-87
2022/09/22 00:17:00;;;;;;;;;;;12.50;99.90;;;;;;4956364;29;19911;-88
2022/09/22 00:19:29;;;;;;;;;;;12.50;99.90;;;;;;4953303;29;20001;-87
2022/09/22 00:21:55;;;;;;;;;;;12.40;99.90;;;;;;4953081;29;20013;-88
2022/09/22 00:24:21;;;;;;;;;;;12.40;99.90;;;;;;4953160;29;19917;-87
2022/09/22 00:26:47;;;;;;;;;;;12.50;99.90;;;;;;4953052;29;19911;-88
2022/09/22 00:29:14;;;;;;;;;;;12.40;99.90;;;;;;4953395;29;19964;-87
2022/09/22 00:31:40;;;;;;;;;;;12.40;99.90;;;;;;4953234;29;20331;-87
2022/09/22 00:34:07;;;;;;;;;;;12.40;99.90;;;;;;4955216;29;19910;-88
2022/09/22 00:36:33;;;;;;;;;;;12.40;99.90;;;;;;4954774;29;19910;-87
2022/09/22 00:38:59;;;;;;;;;;;12.40;99.90;;;;;;4954733;29;19911;-88
2022/09/22 00:41:26;;;;;;;;;;;12.30;99.90;;;;;;4955728;29;19933;-88
2022/09/22 00:44:11;;;;;;;;;;;12.40;99.90;;;;;;4954292;29;19914;-87
2022/09/22 00:46:38;;;;;;;;;;;12.40;99.90;;;;;;4964591;29;19907;-87
2022/09/22 00:49:05;;;;;;;;;;;12.40;99.90;;;;;;4967593;29;19910;-86
2022/09/22 00:51:33;;;;;;;;;;;12.40;99.90;;;;;;4966156;29;20026;-88
2022/09/22 00:54:00;;;;;;;;;;;12.40;99.90;;;;;;4962136;29;19906;-89
2022/09/22 00:56:29;;;;;;;;;;;12.40;99.90;;;;;;4959944;29;19950;-88
2022/09/22 00:59:00;;;;;;;;;;;12.40;99.90;;;;;;4960353;29;19910;-87
2022/09/22 01:01:25;;;;;;;;;;;12.40;99.90;;;;;;4959937;29;19907;-87
2022/09/22 01:03:51;;;;;;;;;;;12.50;99.90;;;;;;4958717;29;19910;-87
2022/09/22 01:06:18;;;;;;;;;;;12.50;99.90;;;;;;4960098;29;19973;-87
2022/09/22 01:08:43;;;;;;;;;;;12.50;99.90;;;;;;4958042;29;19921;-88
2022/09/22 01:11:12;;;;;;;;;;;12.50;99.90;;;;;;4957489;29;19906;-86
2022/09/22 01:13:52;;;;;;;;;;;12.50;99.90;;;;;;4957591;28;19914;-86
2022/09/22 01:16:27;;;;;;;;;;;12.50;99.90;;;;;;4956773;29;19914;-87
2022/09/22 01:19:03;;;;;;;;;;;12.50;99.90;;;;;;4957672;29;19954;-87
2022/09/22 01:21:41;;;;;;;;;;;12.50;99.90;;;;;;4957137;29;19992;-87
2022/09/22 01:24:06;;;;;;;;;;;12.50;99.90;;;;;;4956983;29;20291;-88
2022/09/22 01:26:35;;;;;;;;;;;12.50;99.90;;;;;;4956726;29;19906;-88
2022/09/22 01:29:00;;;;;;;;;;;12.60;99.90;;;;;;4956818;29;19914;-87
2022/09/22 01:31:26;;;;;;;;;;;12.60;99.90;;;;;;4956419;29;19907;-88
2022/09/22 01:34:12;;;;;;;;;;;12.60;99.90;;;;;;4956001;29;19945;-87
2022/09/22 01:36:56;;;;;;;;;;;12.60;99.90;;;;;;4955636;29;19965;-87
2022/09/22 01:39:21;;;;;;;;;;;12.60;99.90;;;;;;4955984;29;19913;-88
2022/09/22 01:41:47;;;;;;;;;;;12.60;99.90;;;;;;4955910;29;19918;-86
2022/09/22 01:44:21;;;;;;;;;;;12.60;99.90;;;;;;4955946;29;19922;-87
2022/09/22 01:46:54;;;;;;;;;;;12.60;99.90;;;;;;4956145;29;20490;-90
2022/09/22 01:49:21;;;;;;;;;;;12.60;99.90;;;;;;4956100;29;19930;-85
2022/09/22 01:51:49;;;;;;;;;;;12.60;99.90;;;;;;4955784;29;19914;-88
2022/09/22 01:54:21;;;;;;;;;;;12.50;99.90;;;;;;4955512;29;20431;-87
2022/09/22 01:56:48;;;;;;;;;;;12.50;99.90;;;;;;4954571;28;19912;-87
2022/09/22 01:59:15;;;;;;;;;;;12.50;99.90;;;;;;4955755;29;19910;-87
2022/09/22 02:01:44;;;;;;;;;;;12.50;99.90;;;;;;4955480;29;19906;-88
2022/09/22 02:04:14;;;;;;;;;;;12.40;99.90;;;;;;4956762;29;20411;-87
2022/09/22 02:06:46;;;;;;;;;;;12.40;99.90;;;;;;4955357;29;19914;-87
2022/09/22 02:09:14;;;;;;;;;;;12.30;99.90;;;;;;4956494;29;19913;-88
2022/09/22 02:11:41;;;;;;;;;;;12.30;99.90;;;;;;4956633;29;19918;-89
2022/09/22 02:14:07;;;;;;;;;;;12.30;99.90;;;;;;4955582;28;19953;-87
2022/09/22 02:16:33;;;;;;;;;;;12.20;99.90;;;;;;4956754;29;19942;-88
2022/09/22 02:19:13;;;;;;;;;;;12.20;99.90;;;;;;4956153;29;19907;-88
2022/09/22 02:21:40;;;;;;;;;;;12.20;99.90;;;;;;4960757;29;19952;-88
2022/09/22 02:24:06;;;;;;;;;;;12.20;99.90;;;;;;4958396;29;19906;-87
2022/09/22 02:26:33;;;;;;;;;;;12.20;99.90;;;;;;4960363;29;20316;-88
2022/09/22 02:29:02;;;;;;;;;;;12.20;99.90;;;;;;4961114;29;19910;-88
2022/09/22 02:31:30;;;;;;;;;;;12.20;99.90;;;;;;4976878;29;19930;-88
2022/09/22 02:33:55;;;;;;;;;;;12.10;99.90;;;;;;4978324;28;19925;-88
2022/09/22 02:36:27;;;;;;;;;;;12.10;99.90;;;;;;4958343;29;19918;-87
2022/09/22 02:38:59;;;;;;;;;;;12.10;99.90;;;;;;4956796;29;19926;-87
2022/09/22 02:41:31;;;;;;;;;;;12.10;99.90;;;;;;4956171;29;20284;-87
2022/09/22 02:44:00;;;;;;;;;;;12.10;99.90;;;;;;4957098;29;20005;-88
2022/09/22 02:46:29;;;;;;;;;;;12.00;99.90;;;;;;4956210;29;19911;-88
2022/09/22 02:49:03;;;;;;;;;;;12.00;99.90;;;;;;4956017;29;19914;-89
2022/09/22 02:51:29;;;;;;;;;;;12.00;99.90;;;;;;4955294;29;19906;-88
2022/09/22 02:53:55;;;;;;;;;;;12.00;99.90;;;;;;4956412;29;19906;-87
2022/09/22 02:56:21;;;;;;;;;;;11.90;99.90;;;;;;4955460;29;20004;-88
2022/09/22 02:58:46;;;;;;;;;;;11.90;99.90;;;;;;4955446;29;20351;-87
2022/09/22 03:01:12;;;;;;;;;;;11.90;99.90;;;;;;4955071;29;19910;-88
2022/09/22 03:03:38;;;;;;;;;;;11.90;99.90;;;;;;4955377;29;19946;-88
2022/09/22 03:06:03;;;;;;;;;;;11.90;99.90;;;;;;4955380;29;20347;-88
2022/09/22 03:08:29;;;;;;;;;;;11.90;99.90;;;;;;4954778;28;19906;-89
2022/09/22 03:10:54;;;;;;;;;;;11.90;99.90;;;;;;4955269;29;19906;-88
2022/09/22 03:13:20;;;;;;;;;;;11.90;99.90;;;;;;4955602;28;20372;-87
2022/09/22 03:15:46;;;;;;;;;;;11.90;99.90;;;;;;4956595;29;19929;-88
2022/09/22 03:18:12;;;;;;;;;;;11.90;99.90;;;;;;4954979;29;19911;-89
2022/09/22 03:20:37;;;;;;;;;;;11.90;99.90;;;;;;4955100;29;20291;-87
2022/09/22 03:23:03;;;;;;;;;;;11.90;99.90;;;;;;4954703;29;19916;-87
2022/09/22 03:25:28;;;;;;;;;;;11.90;99.90;;;;;;4955168;29;20383;-90
2022/09/22 03:27:55;;;;;;;;;;;11.90;99.90;;;;;;4955365;29;19966;-88
2022/09/22 03:30:21;;;;;;;;;;;12.00;99.90;;;;;;4955263;29;19910;-87
2022/09/22 03:32:46;;;;;;;;;;;12.00;99.90;;;;;;4955063;29;20248;-88
2022/09/22 03:35:12;;;;;;;;;;;12.00;99.90;;;;;;4954866;29;19926;-89
2022/09/22 03:37:38;;;;;;;;;;;11.90;99.90;;;;;;4955231;29;19913;-88
2022/09/22 03:40:04;;;;;;;;;;;11.90;99.90;;;;;;4954687;29;19911;-88
2022/09/22 03:42:29;;;;;;;;;;;11.90;99.90;;;;;;4959907;29;19917;-88
2022/09/22 03:44:55;;;;;;;;;;;11.90;99.90;;;;;;4956235;29;19930;-88
2022/09/22 03:47:21;;;;;;;;;;;11.90;99.90;;;;;;4955919;29;20340;-87
2022/09/22 03:49:46;;;;;;;;;;;11.90;99.90;;;;;;4954850;29;19907;-88
2022/09/22 03:52:12;;;;;;;;;;;11.90;99.90;;;;;;4955921;29;19907;-87
2022/09/22 03:54:38;;;;;;;;;;;11.90;99.90;;;;;;4954342;29;19922;-87
2022/09/22 03:57:04;;;;;;;;;;;11.90;99.90;;;;;;4954433;29;20319;-87
2022/09/22 03:59:29;;;;;;;;;;;11.90;99.90;;;;;;4954053;29;19910;-86
2022/09/22 04:01:55;;;;;;;;;;;11.90;99.90;;;;;;4954321;29;19917;-87
2022/09/22 04:04:21;;;;;;;;;;;11.90;99.90;;;;;;4954088;29;19910;-85
2022/09/22 04:06:46;;;;;;;;;;;11.90;99.90;;;;;;4954045;29;19906;-88
2022/09/22 04:09:12;;;;;;;;;;;11.90;99.90;;;;;;4946611;29;19911;-88
2022/09/22 04:11:37;;;;;;;;;;;11.90;99.90;;;;;;4954559;29;19957;-89
2022/09/22 04:14:03;;;;;;;;;;;11.90;99.90;;;;;;4954009;29;20005;-87
2022/09/22 04:16:30;;;;;;;;;;;11.90;99.90;;;;;;4953577;29;19921;-86
2022/09/22 04:18:56;;;;;;;;;;;11.90;99.90;;;;;;4953755;28;19993;-87
2022/09/22 04:21:21;;;;;;;;;;;11.90;99.90;;;;;;4957004;29;20013;-87
2022/09/22 04:23:47;;;;;;;;;;;11.90;99.90;;;;;;4957663;29;20283;-86
2022/09/22 04:26:12;;;;;;;;;;;11.90;99.90;;;;;;4957472;29;19910;-86
2022/09/22 04:28:38;;;;;;;;;;;11.90;99.90;;;;;;4958831;29;19906;-87
2022/09/22 04:31:05;;;;;;;;;;;11.90;99.90;;;;;;4957491;29;19917;-87
2022/09/22 04:33:30;;;;;;;;;;;11.90;99.90;;;;;;4957654;29;20004;-86
2022/09/22 04:35:56;;;;;;;;;;;11.90;99.90;;;;;;4941420;29;19922;-88
2022/09/22 04:38:23;;;;;;;;;;;11.90;99.90;;;;;;4957790;29;19914;-87
2022/09/22 04:40:51;;;;;;;;;;;11.90;99.90;;;;;;4942560;29;19910;-89
2022/09/22 04:43:16;;;;;;;;;;;11.90;99.90;;;;;;4957734;29;19914;-87
2022/09/22 04:45:44;;;;;;;;;;;11.90;99.90;;;;;;4957705;29;19914;-87
2022/09/22 04:48:10;;;;;;;;;;;11.80;99.90;;;;;;4941591;29;19915;-87
2022/09/22 04:50:35;;;;;;;;;;;11.90;99.90;;;;;;4957674;29;19914;-87
2022/09/22 04:53:01;;;;;;;;;;;11.80;99.90;;;;;;4957719;29;19914;-88
2022/09/22 04:55:27;;;;;;;;;;;11.80;99.90;;;;;;4957956;29;19915;-88
2022/09/22 04:57:54;;;;;;;;;;;11.80;99.90;;;;;;4942415;29;20009;-87
2022/09/22 05:00:21;;;;;;;;;;;11.80;99.90;;;;;;4958265;29;20005;-88
2022/09/22 05:02:47;;;;;;;;;;;11.80;99.90;;;;;;4961991;29;19930;-87
2022/09/22 05:05:18;;;;;;;;;;;11.70;99.90;;;;;;4961923;29;19914;-89
2022/09/22 05:07:45;;;;;;;;;;;11.80;99.90;;;;;;4959155;29;20019;-89
2022/09/22 05:10:11;;;;;;;;;;;11.80;99.90;;;;;;4942267;29;19911;-89
2022/09/22 05:12:40;;;;;;;;;;;11.70;99.90;;;;;;4958724;29;19910;-87
2022/09/22 05:15:05;;;;;;;;;;;11.80;99.90;;;;;;4957379;28;19914;-88
2022/09/22 05:17:32;;;;;;;;;;;11.80;99.90;;;;;;4942906;29;20451;-87
2022/09/22 05:19:57;;;;;;;;;;;11.80;99.90;;;;;;4958857;29;19921;-87
2022/09/22 05:22:23;;;;;;;;;;;11.80;99.90;;;;;;4958266;29;19911;-88
2022/09/22 05:24:50;;;;;;;;;;;11.90;99.90;;;;;;4959697;29;19933;-89
2022/09/22 05:27:17;;;;;;;;;;;11.90;99.90;;;;;;4940538;29;20048;-88
2022/09/22 05:29:42;;;;;;;;;;;11.90;99.90;;;;;;4954866;28;19911;-87
2022/09/22 05:32:08;;;;;;;;;;;11.90;99.90;;;;;;4953091;28;19912;-87
2022/09/22 05:34:33;;;;;;;;;;;11.90;99.90;;;;;;4956443;29;19914;-88
2022/09/22 05:36:59;;;;;;;;;;;11.90;99.90;;;;;;4956727;29;19969;-87
2022/09/22 05:39:24;;;;;;;;;;;11.90;99.90;;;;;;4955469;29;19910;-90
2022/09/22 05:41:50;;;;;;;;;;;11.90;99.90;;;;;;4939871;29;19918;-89
2022/09/22 05:44:16;;;;;;;;;;;11.90;99.90;;;;;;4956446;29;19985;-89
2022/09/22 05:46:42;;;;;;;;;;;11.90;99.90;;;;;;4957370;29;19910;-88
2022/09/22 05:49:07;;;;;;;;;;;11.90;99.90;;;;;;4962408;28;19936;-88
2022/09/22 05:51:33;;;;;;;;;;;11.90;99.90;;;;;;4958990;29;19916;-88
2022/09/22 05:53:58;;;;;;;;;;;11.80;99.90;;;;;;4957259;29;20284;-89
2022/09/22 05:56:24;;;;;;;;;;;11.80;99.90;;;;;;4956843;29;19997;-88
2022/09/22 05:58:50;;;;;;;;;;;11.80;99.90;;;;;;4939871;29;19910;-87
2022/09/22 06:01:15;;;;;;;;;;;11.80;99.90;;;;;;4940245;29;19914;-88
2022/09/22 06:03:41;;;;;;;;;;;11.80;99.90;;;;;;4941368;29;19907;-90
2022/09/22 06:06:06;;;;;;;;;;;11.80;99.90;;;;;;4959190;29;19907;-89
2022/09/22 06:08:32;;;;;;;;;;;11.70;99.90;;;;;;4943249;29;19940;-89
2022/09/22 06:10:57;;;;;;;;;;;11.60;99.90;;;;;;4955981;29;19910;-88
2022/09/22 06:13:23;;;;;;;;;;;11.60;99.90;;;;;;4938939;28;19917;-91
2022/09/22 06:15:49;;;;;;;;;;;11.60;99.90;;;;;;4939055;29;19932;-89
2022/09/22 06:18:16;;;;;;;;;;;11.60;99.90;;;;;;4924018;29;20331;-87
2022/09/22 06:20:42;;;;;;;;;;;11.50;99.90;;;;;;4939978;29;19911;-87
2022/09/22 06:23:08;;;;;;;;;;;11.50;99.90;;;;;;4955466;29;19957;-89
2022/09/22 06:25:34;;;;;;;;;;;11.50;99.90;;;;;;4941044;29;19910;-89
2022/09/22 06:28:01;;;;;;;;;;;11.50;99.90;;;;;;4955956;29;19910;-87
2022/09/22 06:30:26;;;;;;;;;;;11.50;99.90;;;;;;4939350;29;19914;-89
2022/09/22 06:32:53;;;;;;;;;;;11.50;99.90;;;;;;4940270;29;20332;-88
2022/09/22 06:35:18;;;;;;;;;;;11.50;99.90;;;;;;4941010;29;19964;-88
2022/09/22 06:37:46;;;;;;;;;;;11.50;99.90;;;;;;4940540;29;19950;-91
2022/09/22 06:40:12;;;;;;;;;;;11.50;99.90;;;;;;4940887;29;20013;-89
2022/09/22 06:42:37;;;;;;;;;;;11.50;99.90;;;;;;4956805;28;20407;-89
2022/09/22 06:45:03;;;;;;;;;;;11.60;99.90;;;;;;4955813;28;19919;-88
2022/09/22 06:47:30;;;;;;;;;;;11.60;99.90;;;;;;4956508;29;19911;-88
2022/09/22 06:49:56;;;;;;;;;;;11.60;99.90;;;;;;4941213;29;19913;-89
2022/09/22 06:52:21;;;;;;;;;;;11.60;99.90;;;;;;4960549;29;19910;-88
2022/09/22 06:54:47;;;;;;;;;;;11.60;99.90;;;;;;4958838;29;19970;-87
2022/09/22 06:57:13;;;;;;;;;;;11.70;99.90;;;;;;4962362;29;19967;-88
2022/09/22 06:59:39;;;;;;;;;;;11.70;99.90;;;;;;4967313;29;19894;-88
2022/09/22 07:02:06;;;;;;;;;;;11.70;99.90;;;;;;4977923;28;19938;-89
2022/09/22 07:04:32;;;;;;;;;;;11.80;99.90;;;;;;4975312;28;20008;-90
2022/09/22 07:06:58;;;;;;;;;;;11.80;99.90;;;;;;4942045;29;19915;-90
2022/09/22 07:09:23;;;;;;;;;;;11.90;99.90;;;;;;4955174;28;19910;-88
2022/09/22 07:11:49;;;;;;;;;;;11.90;99.90;;;;;;4955280;29;19934;-90
2022/09/22 07:14:17;;;;;;;;;;;12.00;99.90;;;;;;4955211;29;20356;-90
2022/09/22 07:16:43;;;;;;;;;;;12.00;99.90;;;;;;4955542;29;19922;-91
2022/09/22 07:19:10;;;;;;;;;;;12.10;99.90;;;;;;4956652;29;19926;-89
2022/09/22 07:21:36;;;;;;;;;;;12.20;99.90;;;;;;4957934;28;20000;-88
2022/09/22 07:24:04;;;;;;;;;;;12.30;99.90;;;;;;4956235;29;19928;-87
2022/09/22 07:26:31;;;;;;;;;;;12.40;99.90;;;;;;4939201;29;20299;-88
2022/09/22 07:29:01;;;;;;;;;;;12.40;99.90;;;;;;4955500;29;19910;-89
2022/09/22 07:31:30;;;;;;;;;;;12.50;99.90;;;;;;4956619;29;19910;-88
2022/09/22 07:33:59;;;;;;;;;;;12.60;99.90;;;;;;4955041;29;19906;-87
2022/09/22 07:36:25;;;;;;;;;;;12.60;99.90;;;;;;4938410;29;19918;-87
2022/09/22 07:38:51;;;;;;;;;;;12.80;99.90;;;;;;4954569;29;19911;-87
2022/09/22 07:41:21;;;;;;;;;;;12.80;99.90;;;;;;4954311;29;19981;-87
2022/09/22 07:43:50;;;;;;;;;;;12.90;99.90;;;;;;4956195;29;19911;-88
2022/09/22 07:46:16;;;;;;;;;;;12.90;99.90;;;;;;4941863;29;19913;-88
2022/09/22 07:48:45;;;;;;;;;;;13.00;99.90;;;;;;4938950;29;19906;-87
2022/09/22 07:51:17;;;;;;;;;;;13.00;99.90;;;;;;4938024;29;19910;-87
2022/09/22 07:53:43;;;;;;;;;;;13.00;99.90;;;;;;4953638;28;20356;-88
2022/09/22 07:56:11;;;;;;;;;;;13.10;99.90;;;;;;4921516;29;20335;-87
2022/09/22 07:58:54;;;;;;;;;;;13.10;99.90;;;;;;4953979;29;19965;-89
2022/09/22 08:01:21;;;;;;;;;;;13.20;99.90;;;;;;4938841;29;19906;-88
2022/09/22 08:03:47;;;;;;;;;;;13.30;99.90;;;;;;4939576;29;19906;-88
2022/09/22 08:06:13;;;;;;;;;;;13.30;99.90;;;;;;4939340;29;19957;-91
2022/09/22 08:08:41;;;;;;;;;;;13.40;99.90;;;;;;4936170;29;19922;-89
2022/09/22 08:11:07;;;;;;;;;;;13.40;99.90;;;;;;4955756;29;20062;-88
2022/09/22 08:13:36;;;;;;;;;;;13.50;99.90;;;;;;4955650;28;19907;-87
2022/09/22 08:16:03;;;;;;;;;;;13.50;99.90;;;;;;4955317;29;19919;-87
2022/09/22 08:18:29;;;;;;;;;;;13.50;99.90;;;;;;4955997;29;19906;-88
2022/09/22 08:20:57;;;;;;;;;;;13.60;99.90;;;;;;4955394;29;20012;-87
2022/09/22 08:23:22;;;;;;;;;;;13.70;99.90;;;;;;4956948;29;19926;-88
2022/09/22 08:25:49;;;;;;;;;;;13.70;99.90;;;;;;4956401;29;20106;-87
2022/09/22 08:28:15;;;;;;;;;;;13.80;99.90;;;;;;4955220;29;20345;-88
2022/09/22 08:30:45;;;;;;;;;;;13.90;99.90;;;;;;4956785;29;19945;-88
2022/09/22 08:33:12;;;;;;;;;;;14.00;99.90;;;;;;4955609;29;19997;-87
2022/09/22 08:35:38;;;;;;;;;;;14.10;99.90;;;;;;4955246;29;19919;-88
2022/09/22 08:38:03;;;;;;;;;;;14.10;99.90;;;;;;4954045;29;20400;-88
2022/09/22 08:40:30;;;;;;;;;;;14.20;99.90;;;;;;4938477;29;19938;-87
2022/09/22 08:42:58;;;;;;;;;;;14.30;99.90;;;;;;4938898;29;19918;-89
2022/09/22 08:45:28;;;;;;;;;;;14.40;99.90;;;;;;4954761;28;19973;-88
2022/09/22 08:53:47;;;;;;;;;;;14.50;99.90;;;;;;4955613;29;19957;-90
2022/09/22 08:56:31;;;;;;;;;;;14.50;99.90;;;;;;4954310;29;19919;-87
2022/09/22 08:59:16;;;;;;;;;;;14.60;99.90;;;;;;4954206;29;19973;-87
2022/09/22 09:01:51;;;;;;;;;;;14.70;99.90;;;;;;4953826;28;19906;-87
2022/09/22 09:04:17;;;;;;;;;;;14.70;99.90;;;;;;4955988;29;19910;-88
2022/09/22 09:06:42;;;;;;;;;;;14.80;99.90;;;;;;4957583;28;19914;-88
2022/09/22 09:09:14;;;;;;;;;;;14.90;99.90;;;;;;4959263;29;19914;-88
2022/09/22 09:11:52;;;;;;;;;;;15.00;99.90;;;;;;4959192;29;19958;-88
2022/09/22 09:14:35;;;;;;;;;;;15.00;99.90;;;;;;4957312;29;19918;-87
2022/09/22 09:17:08;;;;;;;;;;;15.20;99.90;;;;;;4959743;29;19913;-88
2022/09/22 09:19:41;;;;;;;;;;;15.30;99.90;;;;;;4958391;29;19911;-89
2022/09/22 09:22:23;;;;;;;;;;;15.30;99.90;;;;;;4943880;29;19910;-88
2022/09/22 09:24:51;;;;;;;;;;;15.40;99.90;;;;;;4959761;29;19906;-90
2022/09/22 09:27:20;;;;;;;;;;;15.50;99.90;;;;;;4958725;29;19906;-88
2022/09/22 09:29:55;;;;;;;;;;;15.60;99.90;;;;;;4957911;29;20000;-88
2022/09/22 09:32:27;;;;;;;;;;;15.70;99.90;;;;;;4957323;29;20436;-88
2022/09/22 09:34:52;;;;;;;;;;;15.80;99.90;;;;;;4941415;29;19910;-90
2022/09/22 09:37:19;;;;;;;;;;;15.80;99.90;;;;;;4958418;29;20455;-88
2022/09/22 09:39:45;;;;;;;;;;;15.90;99.90;;;;;;4957786;29;19997;-87
2022/09/22 09:42:32;;;;;;;;;;;15.90;99.90;;;;;;4957527;29;19938;-88
2022/09/22 09:45:01;;;;;;;;;;;15.90;99.90;;;;;;4940370;29;21582;-89
2022/09/22 09:47:29;;;;;;;;;;;15.90;99.90;;;;;;4958113;29;19967;-89
2022/09/22 09:49:55;;;;;;;;;;;16.00;99.90;;;;;;4958126;29;19914;-88
2022/09/22 09:52:24;;;;;;;;;;;16.00;99.90;;;;;;4940856;29;19907;-88
2022/09/22 09:54:51;;;;;;;;;;;16.00;99.90;;;;;;4957004;29;19922;-87
2022/09/22 09:57:18;;;;;;;;;;;16.10;99.90;;;;;;4940761;29;19914;-88
2022/09/22 10:02:31;;;;;;;;;;;16.20;99.90;;;;;;4944771;29;19918;-87
2022/09/22 10:05:01;;;;;;;;;;;16.20;99.90;;;;;;4957844;29;20360;-90
2022/09/22 10:07:29;;;;;;;;;;;16.20;99.90;;;;;;4940630;29;19906;-90
2022/09/22 10:09:55;;;;;;;;;;;16.10;99.90;;;;;;4940739;29;19922;-86
2022/09/22 10:12:20;;;;;;;;;;;16.10;99.90;;;;;;4956117;29;19933;-89
2022/09/22 10:14:51;;;;;;;;;;;16.10;99.90;;;;;;4956020;29;19918;-88
2022/09/22 10:17:19;;;;;;;;;;;16.00;99.90;;;;;;4956707;28;19910;-89
2022/09/22 10:19:45;;;;;;;;;;;16.00;99.90;;;;;;4957369;29;20418;-88
2022/09/22 10:22:26;;;;;;;;;;;16.00;99.90;;;;;;4939144;29;19918;-87
2022/09/22 10:24:53;;;;;;;;;;;16.10;99.90;;;;;;4955945;29;19961;-88
2022/09/22 10:27:19;;;;;;;;;;;16.10;99.90;;;;;;4956784;29;19914;-87
2022/09/22 10:29:45;;;;;;;;;;;16.10;99.90;;;;;;4941602;29;19920;-89
2022/09/22 10:32:12;;;;;;;;;;;16.10;99.90;;;;;;4957166;29;19910;-86
2022/09/22 10:34:40;;;;;;;;;;;16.20;99.90;;;;;;4939635;29;20005;-87
2022/09/22 10:37:10;;;;;;;;;;;16.20;99.90;;;;;;4956818;29;20013;-88
2022/09/22 10:39:45;;;;;;;;;;;16.20;99.90;;;;;;4940701;29;19961;-88
2022/09/22 10:42:14;;;;;;;;;;;16.30;99.90;;;;;;4956912;29;19907;-88
2022/09/22 10:44:40;;;;;;;;;;;16.30;99.90;;;;;;4956425;29;20399;-88
2022/09/22 10:47:06;;;;;;;;;;;16.30;99.90;;;;;;4957084;28;19910;-88
2022/09/22 10:49:50;;;;;;;;;;;16.30;99.90;;;;;;4958389;29;19917;-88
2022/09/22 10:52:36;;;;;;;;;;;16.40;99.90;;;;;;4955898;29;19917;-88
2022/09/22 10:55:17;;;;;;;;;;;16.40;99.90;;;;;;4956369;29;20359;-87
2022/09/22 10:58:00;;;;;;;;;;;16.50;99.90;;;;;;4955869;29;20001;-88
2022/09/22 11:00:26;;;;;;;;;;;16.50;99.90;;;;;;4957406;29;20005;-88
2022/09/22 11:03:04;;;;;;;;;;;16.70;99.90;;;;;;4939874;29;19914;-88
2022/09/22 11:14:42;;;;;;;;;;;17.10;99.90;;;;;;4957791;28;20264;-87
2022/09/22 11:17:14;;;;;;;;;;;17.20;99.90;;;;;;4939378;29;19914;-88
2022/09/22 11:19:46;;;;;;;;;;;17.40;99.90;;;;;;4942679;29;19945;-89
2022/09/22 11:22:41;;;;;;;;;;;17.50;99.90;;;;;;4959933;29;19934;-88
2022/09/22 11:25:16;;;;;;;;;;;17.50;98.90;;;;;;4937853;29;19906;-88
2022/09/22 11:27:50;;;;;;;;;;;17.60;98.60;;;;;;4976854;29;19915;-89
2022/09/22 11:30:22;;;;;;;;;;;17.70;97.80;;;;;;4974790;28;19915;-88
2022/09/22 11:32:53;;;;;;;;;;;17.80;97.70;;;;;;4966993;29;19953;-88
2022/09/22 11:35:25;;;;;;;;;;;17.80;96.90;;;;;;4960835;29;19918;-88
2022/09/22 11:38:12;;;;;;;;;;;17.80;96.60;;;;;;4939756;29;19914;-87
2022/09/22 11:40:44;;;;;;;;;;;17.70;96.10;;;;;;4940391;29;20001;-88
2022/09/22 11:43:19;;;;;;;;;;;17.60;96.40;;;;;;4954760;29;19907;-87
2022/09/22 11:45:45;;;;;;;;;;;17.60;96.70;;;;;;4948560;29;19914;-87
2022/09/22 11:48:29;;;;;;;;;;;17.70;97.20;;;;;;4953025;29;19910;-87
2022/09/22 11:51:08;;;;;;;;;;;17.70;96.70;;;;;;4953692;29;19914;-88
2022/09/22 11:53:40;;;;;;;;;;;17.70;96.50;;;;;;4956333;29;19969;-91
2022/09/22 11:56:05;;;;;;;;;;;17.70;96.30;;;;;;4954947;29;19914;-89
2022/09/22 11:58:32;;;;;;;;;;;17.60;96.30;;;;;;4954474;29;20045;-88
2022/09/22 12:01:05;;;;;;;;;;;17.40;96.00;;;;;;4938656;29;19907;-88
2022/09/22 12:03:38;;;;;;;;;;;17.40;96.20;;;;;;4939439;29;19917;-89
2022/09/22 12:06:07;;;;;;;;;;;17.40;96.40;;;;;;4952890;29;19907;-89
2022/09/22 12:08:44;;;;;;;;;;;17.40;96.70;;;;;;4938394;29;19917;-88
2022/09/22 12:11:12;;;;;;;;;;;17.50;96.70;;;;;;4938426;29;19923;-87
2022/09/22 12:13:41;;;;;;;;;;;17.50;96.60;;;;;;4937188;28;19906;-88
2022/09/22 12:16:12;;;;;;;;;;;17.50;96.50;;;;;;4938724;29;19926;-87
2022/09/22 12:18:50;;;;;;;;;;;17.50;96.10;;;;;;4956674;29;19917;-87
2022/09/22 12:21:35;;;;;;;;;;;17.40;96.10;;;;;;4939852;29;19913;-88
2022/09/22 12:24:03;;;;;;;;;;;17.30;96.10;;;;;;4954758;29;20264;-87
2022/09/22 12:26:34;;;;;;;;;;;17.20;96.10;;;;;;4939035;29;19929;-87
2022/09/22 12:29:01;;;;;;;;;;;17.20;96.20;;;;;;4938865;29;19974;-87
2022/09/22 12:31:31;;;;;;;;;;;17.20;96.40;;;;;;4938861;29;20391;-87
2022/09/22 12:33:58;;;;;;;;;;;17.20;96.40;;;;;;4938643;29;20013;-87
2022/09/22 12:36:38;;;;;;;;;;;17.20;96.30;;;;;;4938487;29;20364;-87
2022/09/22 12:39:19;;;;;;;;;;;17.20;96.20;;;;;;4938443;29;19906;-88
2022/09/22 12:41:49;;;;;;;;;;;17.20;96.20;;;;;;4940762;29;19907;-87
2022/09/22 12:44:16;;;;;;;;;;;17.30;96.30;;;;;;4959608;29;19997;-89
2022/09/22 12:46:42;;;;;;;;;;;17.40;96.20;;;;;;4942222;29;20332;-88
2022/09/22 12:49:09;;;;;;;;;;;17.70;96.20;;;;;;4942407;29;19969;-88
2022/09/22 12:51:35;;;;;;;;;;;17.90;95.60;;;;;;4959126;29;19910;-87
2022/09/22 12:54:25;;;;;;;;;;;18.10;95.20;;;;;;4941707;29;19968;-87
2022/09/22 12:57:10;;;;;;;;;;;18.30;94.90;;;;;;4941855;29;19970;-87
2022/09/22 12:59:35;;;;;;;;;;;18.60;94.30;;;;;;4957854;29;19969;-88
2022/09/22 13:02:17;;;;;;;;;;;18.80;93.70;;;;;;4958794;29;19906;-88
2022/09/22 13:04:48;;;;;;;;;;;18.90;93.20;;;;;;4959148;29;19914;-88
2022/09/22 13:07:29;;;;;;;;;;;19.00;92.80;;;;;;4957801;29;20378;-88
2022/09/22 13:10:13;;;;;;;;;;;19.00;92.40;;;;;;4957950;29;19930;-88
2022/09/22 13:12:40;;;;;;;;;;;18.80;92.00;;;;;;4958535;29;19930;-89
2022/09/22 13:15:06;;;;;;;;;;;18.70;92.10;;;;;;4959295;28;19941;-88
2022/09/22 13:17:41;;;;;;;;;;;18.70;92.40;;;;;;4957667;29;19989;-90
2022/09/22 13:20:18;;;;;;;;;;;18.50;92.50;;;;;;4955572;29;19929;-87
2022/09/22 13:22:44;;;;;;;;;;;18.40;92.60;;;;;;4956792;29;19911;-86
2022/09/22 13:25:13;;;;;;;;;;;18.30;92.50;;;;;;4958433;29;19906;-88
2022/09/22 13:27:39;;;;;;;;;;;18.10;92.80;;;;;;4942113;29;19938;-88
2022/09/22 13:30:06;;;;;;;;;;;18.00;93.20;;;;;;4958389;29;19966;-87
2022/09/22 13:32:31;;;;;;;;;;;17.90;93.50;;;;;;4940209;29;19910;-89
2022/09/22 13:34:57;;;;;;;;;;;17.80;93.80;;;;;;4956610;29;19922;-88
2022/09/22 13:37:23;;;;;;;;;;;17.90;94.10;;;;;;4940283;29;19934;-87
2022/09/22 13:39:50;;;;;;;;;;;17.80;94.30;;;;;;4939828;29;19910;-88
2022/09/22 13:42:18;;;;;;;;;;;17.80;94.50;;;;;;4924040;29;19934;-87
2022/09/22 13:44:46;;;;;;;;;;;17.60;94.60;;;;;;4957019;29;19919;-88
2022/09/22 13:47:20;;;;;;;;;;;17.50;94.80;;;;;;4956900;29;19910;-88
2022/09/22 13:49:48;;;;;;;;;;;17.40;95.00;;;;;;4954187;29;19906;-87
2022/09/22 13:52:21;;;;;;;;;;;17.40;95.20;;;;;;4939434;29;20418;-88
2022/09/22 13:54:54;;;;;;;;;;;17.30;95.40;;;;;;4939051;29;20328;-87
2022/09/22 13:57:26;;;;;;;;;;;17.30;95.60;;;;;;4938208;28;19949;-88
2022/09/22 13:59:51;;;;;;;;;;;17.20;95.80;;;;;;4953057;29;20001;-88
2022/09/22 14:02:24;;;;;;;;;;;17.10;96.00;;;;;;4939147;29;19946;-88
2022/09/22 14:04:51;;;;;;;;;;;17.10;96.20;;;;;;4939769;29;19914;-89
2022/09/22 14:07:20;;;;;;;;;;;17.10;96.30;;;;;;4939830;29;19913;-87
2022/09/22 14:09:47;;;;;;;;;;;17.00;96.40;;;;;;4956437;29;19915;-87
2022/09/22 14:12:13;;;;;;;;;;;17.00;96.60;;;;;;4956513;29;19906;-87
2022/09/22 14:14:39;;;;;;;;;;;16.90;96.70;;;;;;4939241;29;20049;-87
2022/09/22 14:17:31;;;;;;;;;;;16.80;96.90;;;;;;4939385;29;19910;-89
2022/09/22 14:19:59;;;;;;;;;;;16.80;97.20;;;;;;4948587;29;19911;-88
2022/09/22 14:22:26;;;;;;;;;;;16.70;97.50;;;;;;4957220;29;20497;-89
2022/09/22 14:24:58;;;;;;;;;;;16.70;97.80;;;;;;4940637;29;19917;-89
2022/09/22 14:27:31;;;;;;;;;;;16.70;98.30;;;;;;4958279;29;20427;-90
2022/09/22 14:29:58;;;;;;;;;;;16.60;98.70;;;;;;4956795;29;19906;-88
2022/09/22 14:32:46;;;;;;;;;;;16.50;99.40;;;;;;4956946;29;19910;-89
2022/09/22 14:35:21;;;;;;;;;;;16.50;99.90;;;;;;4956902;29;19925;-90
2022/09/22 14:37:48;;;;;;;;;;;16.40;99.90;;;;;;4956015;29;20053;-89
2022/09/22 14:40:15;;;;;;;;;;;16.40;99.90;;;;;;4939841;29;19958;-89
2022/09/22 14:42:41;;;;;;;;;;;16.40;99.90;;;;;;4956382;29;19910;-89
2022/09/22 14:45:07;;;;;;;;;;;16.30;99.90;;;;;;4956828;29;19940;-89